Khasavyurt, Russia
Current Conditions -  °F | °C
As of 8:00 PM on Friday 31 Oct 2014 (Local Time) from URML Reporting Station
Overcast Overcast  
Wind Chill: 54°   Ceiling: 2000
Heat Index: 54°   Visibility: 4mi
Dew Point: 50°   Wind: 16mph
Humidity: 88%   Direction: 130°SE
Pressure: 29.94"   Gusts: NA
Location:  43.24°N, 46.58°E
Report Text: URML 311700Z 13007MPS 6000 BKN020 OVC040 12/10 Q1014 NOSIG RMKQFE760/1013
Loading
Personal Weather Stations






























Interactive Weather Map
Tropical Storm Tracking
New forecast layout! Learn more

10-Day Weather Forecast

Advertisements
Track Severe Weather on mobile